Crosbyton, Texas
Current Conditions -  °F | °C
As of 2:53 PM on Friday 31 Oct 2014 (Local Time) from KLBB Reporting Station
Scattered Clouds Scattered Clouds  
Wind Chill: 64°   Ceiling: Unl
Heat Index: 64°   Visibility: 10mi
Dew Point: 31°   Wind: 13mph
Humidity: 29%   Direction: 100°E
Pressure: 30.37"   Gusts: NA
Location:  33.66°N, 101.24°W
Report Text: KLBB 311953Z 10011KT 10SM FEW150 SCT200 SCT300 18/M01 A3037 RMK AO2 SLP263 T01781006
Loading
Personal Weather Stations






























Interactive Weather Map
Tropical Storm Tracking
New forecast layout! Learn more

10-Day Weather Forecast

Advertisements
Track Severe Weather on mobile